sensor_id;sensor_type;location;lat;lon;timestamp;temperature;humidity
18191;DHT22;47004;51.366;12.348;2023-05-20T00:01:19;13.10;99.90
18191;DHT22;47004;51.366;12.348;2023-05-20T00:03:21;13.10;99.90
18191;DHT22;47004;51.366;12.348;2023-05-20T00:05:23;13.10;99.90
18191;DHT22;47004;51.366;12.348;2023-05-20T00:07:25;13.10;99.90
18191;DHT22;47004;51.366;12.348;2023-05-20T00:09:28;13.10;99.90
18191;DHT22;47004;51.366;12.348;2023-05-20T00:11:30;13.10;99.90
18191;DHT22;47004;51.366;12.348;2023-05-20T00:13:32;13.10;99.90
18191;DHT22;47004;51.366;12.348;2023-05-20T00:15:35;13.10;99.90
18191;DHT22;47004;51.366;12.348;2023-05-20T00:17:37;13.10;99.90
18191;DHT22;47004;51.366;12.348;2023-05-20T00:19:39;13.10;99.90
18191;DHT22;47004;51.366;12.348;2023-05-20T00:21:41;13.10;99.90
18191;DHT22;47004;51.366;12.348;2023-05-20T00:23:43;13.00;99.90
18191;DHT22;47004;51.366;12.348;2023-05-20T00:25:46;13.00;99.90
18191;DHT22;47004;51.366;12.348;2023-05-20T00:27:48;13.00;99.90
18191;DHT22;47004;51.366;12.348;2023-05-20T00:29:50;13.00;99.90
18191;DHT22;47004;51.366;12.348;2023-05-20T00:31:52;13.00;99.90
18191;DHT22;47004;51.366;12.348;2023-05-20T00:33:54;13.00;99.90
18191;DHT22;47004;51.366;12.348;2023-05-20T00:35:56;13.00;99.90
18191;DHT22;47004;51.366;12.348;2023-05-20T00:37:58;13.00;99.90
18191;DHT22;47004;51.366;12.348;2023-05-20T00:40:00;12.90;99.90
18191;DHT22;47004;51.366;12.348;2023-05-20T00:42:03;13.00;99.90
18191;DHT22;47004;51.366;12.348;2023-05-20T00:44:05;12.90;99.90
18191;DHT22;47004;51.366;12.348;2023-05-20T00:46:08;12.90;99.90
18191;DHT22;47004;51.366;12.348;2023-05-20T00:48:10;12.90;99.90
18191;DHT22;47004;51.366;12.348;2023-05-20T00:50:12;12.90;99.90
18191;DHT22;47004;51.366;12.348;2023-05-20T00:52:14;12.90;99.90
18191;DHT22;47004;51.366;12.348;2023-05-20T00:54:16;12.90;99.90
18191;DHT22;47004;51.366;12.348;2023-05-20T00:56:19;13.00;99.90
18191;DHT22;47004;51.366;12.348;2023-05-20T00:58:23;12.90;99.90
18191;DHT22;47004;51.366;12.348;2023-05-20T01:00:25;12.90;99.90
18191;DHT22;47004;51.366;12.348;2023-05-20T01:02:28;13.00;99.90
18191;DHT22;47004;51.366;12.348;2023-05-20T01:04:30;13.00;99.90
18191;DHT22;47004;51.366;12.348;2023-05-20T01:06:32;12.90;99.90
18191;DHT22;47004;51.366;12.348;2023-05-20T01:08:34;13.00;99.90
18191;DHT22;47004;51.366;12.348;2023-05-20T01:10:40;13.00;99.90
18191;DHT22;47004;51.366;12.348;2023-05-20T01:12:45;13.00;99.90
18191;DHT22;47004;51.366;12.348;2023-05-20T01:14:53;13.00;99.90
18191;DHT22;47004;51.366;12.348;2023-05-20T01:17:01;12.90;99.90
18191;DHT22;47004;51.366;12.348;2023-05-20T01:19:21;12.90;99.90
18191;DHT22;47004;51.366;12.348;2023-05-20T01:21:23;12.90;99.90
18191;DHT22;47004;51.366;12.348;2023-05-20T01:23:32;13.00;99.90
18191;DHT22;47004;51.366;12.348;2023-05-20T01:25:34;12.90;99.90
18191;DHT22;47004;51.366;12.348;2023-05-20T01:27:36;13.00;99.90
18191;DHT22;47004;51.366;12.348;2023-05-20T01:29:38;13.00;99.90
18191;DHT22;47004;51.366;12.348;2023-05-20T01:31:41;13.00;99.90
18191;DHT22;47004;51.366;12.348;2023-05-20T01:33:43;13.00;99.90
18191;DHT22;47004;51.366;12.348;2023-05-20T01:35:46;13.00;99.90
18191;DHT22;47004;51.366;12.348;2023-05-20T01:37:49;13.00;99.90
18191;DHT22;47004;51.366;12.348;2023-05-20T01:39:55;13.00;99.90
18191;DHT22;47004;51.366;12.348;2023-05-20T01:41:57;13.00;99.90
18191;DHT22;47004;51.366;12.348;2023-05-20T01:44:00;13.00;99.90
18191;DHT22;47004;51.366;12.348;2023-05-20T01:46:04;13.00;99.90
18191;DHT22;47004;51.366;12.348;2023-05-20T01:48:08;13.00;99.90
18191;DHT22;47004;51.366;12.348;2023-05-20T01:50:11;13.00;99.90
18191;DHT22;47004;51.366;12.348;2023-05-20T01:52:13;13.00;99.90
18191;DHT22;47004;51.366;12.348;2023-05-20T01:54:14;13.00;99.90
18191;DHT22;47004;51.366;12.348;2023-05-20T01:56:18;13.00;99.90
18191;DHT22;47004;51.366;12.348;2023-05-20T01:58:21;13.00;99.90
18191;DHT22;47004;51.366;12.348;2023-05-20T02:00:23;13.00;99.90
18191;DHT22;47004;51.366;12.348;2023-05-20T02:02:25;13.00;99.90
18191;DHT22;47004;51.366;12.348;2023-05-20T02:04:27;13.00;99.90
18191;DHT22;47004;51.366;12.348;2023-05-20T02:06:29;13.00;99.90
18191;DHT22;47004;51.366;12.348;2023-05-20T02:08:31;13.00;99.90
18191;DHT22;47004;51.366;12.348;2023-05-20T02:10:33;13.00;99.90
18191;DHT22;47004;51.366;12.348;2023-05-20T02:12:36;13.00;99.90
18191;DHT22;47004;51.366;12.348;2023-05-20T02:14:38;13.00;99.90
18191;DHT22;47004;51.366;12.348;2023-05-20T02:16:40;13.00;99.90
18191;DHT22;47004;51.366;12.348;2023-05-20T02:18:42;12.90;99.90
18191;DHT22;47004;51.366;12.348;2023-05-20T02:20:44;12.90;99.90
18191;DHT22;47004;51.366;12.348;2023-05-20T02:22:46;13.00;99.90
18191;DHT22;47004;51.366;12.348;2023-05-20T02:24:48;13.00;99.90
18191;DHT22;47004;51.366;12.348;2023-05-20T02:26:50;12.90;99.90
18191;DHT22;47004;51.366;12.348;2023-05-20T02:28:55;12.90;99.90
18191;DHT22;47004;51.366;12.348;2023-05-20T02:30:57;12.90;99.90
18191;DHT22;47004;51.366;12.348;2023-05-20T02:32:59;12.90;99.90
18191;DHT22;47004;51.366;12.348;2023-05-20T02:35:01;12.90;99.90
18191;DHT22;47004;51.366;12.348;2023-05-20T02:37:03;12.90;99.90
18191;DHT22;47004;51.366;12.348;2023-05-20T02:39:05;12.90;99.90
18191;DHT22;47004;51.366;12.348;2023-05-20T02:41:07;12.90;99.90
18191;DHT22;47004;51.366;12.348;2023-05-20T02:43:09;12.90;99.90
18191;DHT22;47004;51.366;12.348;2023-05-20T02:45:12;12.90;99.90
18191;DHT22;47004;51.366;12.348;2023-05-20T02:47:14;12.90;99.90
18191;DHT22;47004;51.366;12.348;2023-05-20T02:49:16;12.90;99.90
18191;DHT22;47004;51.366;12.348;2023-05-20T02:51:18;12.90;99.90
18191;DHT22;47004;51.366;12.348;2023-05-20T02:53:20;12.90;99.90
18191;DHT22;47004;51.366;12.348;2023-05-20T02:55:22;12.90;99.90
18191;DHT22;47004;51.366;12.348;2023-05-20T02:57:24;12.90;99.90
18191;DHT22;47004;51.366;12.348;2023-05-20T02:59:26;12.90;99.90
18191;DHT22;47004;51.366;12.348;2023-05-20T03:01:30;12.90;99.90
18191;DHT22;47004;51.366;12.348;2023-05-20T03:03:33;12.90;99.90
18191;DHT22;47004;51.366;12.348;2023-05-20T03:05:35;12.90;99.90
18191;DHT22;47004;51.366;12.348;2023-05-20T03:07:37;12.90;99.90
18191;DHT22;47004;51.366;12.348;2023-05-20T03:09:39;12.90;99.90
18191;DHT22;47004;51.366;12.348;2023-05-20T03:11:42;12.90;99.90
18191;DHT22;47004;51.366;12.348;2023-05-20T03:13:44;12.90;99.90
18191;DHT22;47004;51.366;12.348;2023-05-20T03:15:45;12.90;99.90
18191;DHT22;47004;51.366;12.348;2023-05-20T03:17:49;12.90;99.90
18191;DHT22;47004;51.366;12.348;2023-05-20T03:19:51;12.90;99.90
18191;DHT22;47004;51.366;12.348;2023-05-20T03:21:53;12.90;99.90
18191;DHT22;47004;51.366;12.348;2023-05-20T03:23:54;12.90;99.90
18191;DHT22;47004;51.366;12.348;2023-05-20T03:25:56;12.90;99.90
18191;DHT22;47004;51.366;12.348;2023-05-20T03:27:58;12.90;99.90
18191;DHT22;47004;51.366;12.348;2023-05-20T03:30:00;12.80;99.90
18191;DHT22;47004;51.366;12.348;2023-05-20T03:32:02;12.80;99.90
18191;DHT22;47004;51.366;12.348;2023-05-20T03:34:06;12.80;99.90
18191;DHT22;47004;51.366;12.348;2023-05-20T03:36:08;12.80;99.90
18191;DHT22;47004;51.366;12.348;2023-05-20T03:38:10;12.80;99.90
18191;DHT22;47004;51.366;12.348;2023-05-20T03:40:11;12.80;99.90
18191;DHT22;47004;51.366;12.348;2023-05-20T03:42:13;12.70;99.90
18191;DHT22;47004;51.366;12.348;2023-05-20T03:44:15;12.70;99.90
18191;DHT22;47004;51.366;12.348;2023-05-20T03:46:19;12.70;99.90
18191;DHT22;47004;51.366;12.348;2023-05-20T03:48:21;12.70;99.90
18191;DHT22;47004;51.366;12.348;2023-05-20T03:50:24;12.70;99.90
18191;DHT22;47004;51.366;12.348;2023-05-20T03:52:26;12.70;99.90
18191;DHT22;47004;51.366;12.348;2023-05-20T03:54:28;12.70;99.90
18191;DHT22;47004;51.366;12.348;2023-05-20T03:56:31;12.60;99.90
18191;DHT22;47004;51.366;12.348;2023-05-20T03:58:33;12.60;99.90
18191;DHT22;47004;51.366;12.348;2023-05-20T04:00:34;12.60;99.90
18191;DHT22;47004;51.366;12.348;2023-05-20T04:02:36;12.60;99.90
18191;DHT22;47004;51.366;12.348;2023-05-20T04:04:41;12.60;99.90
18191;DHT22;47004;51.366;12.348;2023-05-20T04:06:45;12.60;99.90
18191;DHT22;47004;51.366;12.348;2023-05-20T04:08:47;12.70;99.90
18191;DHT22;47004;51.366;12.348;2023-05-20T04:10:48;12.70;99.90
18191;DHT22;47004;51.366;12.348;2023-05-20T04:12:50;12.70;99.90
18191;DHT22;47004;51.366;12.348;2023-05-20T04:14:53;12.70;99.90
18191;DHT22;47004;51.366;12.348;2023-05-20T04:16:55;12.70;99.90
18191;DHT22;47004;51.366;12.348;2023-05-20T04:18:57;12.70;99.90
18191;DHT22;47004;51.366;12.348;2023-05-20T04:21:00;12.70;99.90
18191;DHT22;47004;51.366;12.348;2023-05-20T04:23:03;12.80;99.90
18191;DHT22;47004;51.366;12.348;2023-05-20T04:25:06;12.80;99.90
18191;DHT22;47004;51.366;12.348;2023-05-20T04:27:07;12.80;99.90
18191;DHT22;47004;51.366;12.348;2023-05-20T04:29:10;12.80;99.90
18191;DHT22;47004;51.366;12.348;2023-05-20T04:31:12;12.80;99.90
18191;DHT22;47004;51.366;12.348;2023-05-20T04:33:14;12.80;99.90
18191;DHT22;47004;51.366;12.348;2023-05-20T04:35:18;12.90;99.90
18191;DHT22;47004;51.366;12.348;2023-05-20T04:37:20;12.90;99.90
18191;DHT22;47004;51.366;12.348;2023-05-20T04:39:23;12.90;99.90
18191;DHT22;47004;51.366;12.348;2023-05-20T04:41:26;12.90;99.90
18191;DHT22;47004;51.366;12.348;2023-05-20T04:43:28;13.00;99.90
18191;DHT22;47004;51.366;12.348;2023-05-20T04:45:30;13.00;99.90
18191;DHT22;47004;51.366;12.348;2023-05-20T04:47:33;13.00;99.90
18191;DHT22;47004;51.366;12.348;2023-05-20T04:49:38;13.00;99.90
18191;DHT22;47004;51.366;12.348;2023-05-20T04:51:40;13.00;99.90
18191;DHT22;47004;51.366;12.348;2023-05-20T04:53:43;13.00;99.90
18191;DHT22;47004;51.366;12.348;2023-05-20T04:55:47;13.10;99.90
18191;DHT22;47004;51.366;12.348;2023-05-20T04:57:49;13.20;99.90
18191;DHT22;47004;51.366;12.348;2023-05-20T04:59:51;13.20;99.90
18191;DHT22;47004;51.366;12.348;2023-05-20T05:01:53;13.20;99.90
18191;DHT22;47004;51.366;12.348;2023-05-20T05:03:55;13.30;99.90
18191;DHT22;47004;51.366;12.348;2023-05-20T05:05:57;13.30;99.90
18191;DHT22;47004;51.366;12.348;2023-05-20T05:07:59;13.40;99.90
18191;DHT22;47004;51.366;12.348;2023-05-20T05:10:01;13.40;99.90
18191;DHT22;47004;51.366;12.348;2023-05-20T05:12:05;13.40;99.90
18191;DHT22;47004;51.366;12.348;2023-05-20T05:14:06;13.40;99.90
18191;DHT22;47004;51.366;12.348;2023-05-20T05:16:08;13.50;99.90
18191;DHT22;47004;51.366;12.348;2023-05-20T05:18:10;13.50;99.90
18191;DHT22;47004;51.366;12.348;2023-05-20T05:20:12;13.60;99.90
18191;DHT22;47004;51.366;12.348;2023-05-20T05:22:14;13.50;99.90
18191;DHT22;47004;51.366;12.348;2023-05-20T05:24:16;13.60;99.90
18191;DHT22;47004;51.366;12.348;2023-05-20T05:26:18;13.60;99.90
18191;DHT22;47004;51.366;12.348;2023-05-20T05:28:22;13.70;99.90
18191;DHT22;47004;51.366;12.348;2023-05-20T05:30:24;13.70;99.90
18191;DHT22;47004;51.366;12.348;2023-05-20T05:32:26;13.70;99.90
18191;DHT22;47004;51.366;12.348;2023-05-20T05:34:28;13.80;99.90
18191;DHT22;47004;51.366;12.348;2023-05-20T05:36:32;13.80;99.90
18191;DHT22;47004;51.366;12.348;2023-05-20T05:38:34;13.80;99.90
18191;DHT22;47004;51.366;12.348;2023-05-20T05:40:36;13.90;99.90
18191;DHT22;47004;51.366;12.348;2023-05-20T05:42:38;13.90;99.90
18191;DHT22;47004;51.366;12.348;2023-05-20T05:44:41;13.90;99.90
18191;DHT22;47004;51.366;12.348;2023-05-20T05:46:49;14.00;99.90
18191;DHT22;47004;51.366;12.348;2023-05-20T05:48:51;14.00;99.90
18191;DHT22;47004;51.366;12.348;2023-05-20T05:50:53;13.90;99.90
18191;DHT22;47004;51.366;12.348;2023-05-20T05:52:55;13.90;99.90
18191;DHT22;47004;51.366;12.348;2023-05-20T05:54:57;13.90;99.90
18191;DHT22;47004;51.366;12.348;2023-05-20T05:56:59;13.90;99.90
18191;DHT22;47004;51.366;12.348;2023-05-20T05:59:01;13.90;99.90
18191;DHT22;47004;51.366;12.348;2023-05-20T06:01:04;13.90;99.90
18191;DHT22;47004;51.366;12.348;2023-05-20T06:03:06;14.00;99.90
18191;DHT22;47004;51.366;12.348;2023-05-20T06:05:09;14.00;99.90
18191;DHT22;47004;51.366;12.348;2023-05-20T06:07:11;14.10;99.90
18191;DHT22;47004;51.366;12.348;2023-05-20T06:09:13;14.20;99.90
18191;DHT22;47004;51.366;12.348;2023-05-20T06:11:15;14.30;99.90
18191;DHT22;47004;51.366;12.348;2023-05-20T06:13:17;14.30;99.90
18191;DHT22;47004;51.366;12.348;2023-05-20T06:15:19;14.30;99.90
18191;DHT22;47004;51.366;12.348;2023-05-20T06:17:22;14.40;99.90
18191;DHT22;47004;51.366;12.348;2023-05-20T06:19:24;14.40;99.90
18191;DHT22;47004;51.366;12.348;2023-05-20T06:21:26;14.40;99.90
18191;DHT22;47004;51.366;12.348;2023-05-20T06:23:28;14.40;99.90
18191;DHT22;47004;51.366;12.348;2023-05-20T06:25:30;14.50;99.90
18191;DHT22;47004;51.366;12.348;2023-05-20T06:27:32;14.50;99.90
18191;DHT22;47004;51.366;12.348;2023-05-20T06:29:34;14.50;99.90
18191;DHT22;47004;51.366;12.348;2023-05-20T06:31:36;14.60;99.90
18191;DHT22;47004;51.366;12.348;2023-05-20T06:33:39;14.60;99.90
18191;DHT22;47004;51.366;12.348;2023-05-20T06:35:41;14.60;99.90
18191;DHT22;47004;51.366;12.348;2023-05-20T06:37:43;14.60;99.90
18191;DHT22;47004;51.366;12.348;2023-05-20T06:39:45;14.60;99.90
18191;DHT22;47004;51.366;12.348;2023-05-20T06:41:50;14.70;99.90
18191;DHT22;47004;51.366;12.348;2023-05-20T06:43:53;14.70;99.90
18191;DHT22;47004;51.366;12.348;2023-05-20T06:45:54;14.70;99.90
18191;DHT22;47004;51.366;12.348;2023-05-20T06:47:56;14.70;99.90
18191;DHT22;47004;51.366;12.348;2023-05-20T06:50:01;14.70;99.90
18191;DHT22;47004;51.366;12.348;2023-05-20T06:52:04;14.70;99.90
18191;DHT22;47004;51.366;12.348;2023-05-20T06:54:06;14.80;99.90
18191;DHT22;47004;51.366;12.348;2023-05-20T06:56:08;14.80;99.90
18191;DHT22;47004;51.366;12.348;2023-05-20T06:58:10;14.80;99.90
18191;DHT22;47004;51.366;12.348;2023-05-20T07:00:12;14.80;99.90
18191;DHT22;47004;51.366;12.348;2023-05-20T07:02:14;14.80;99.90
18191;DHT22;47004;51.366;12.348;2023-05-20T07:04:16;14.80;99.90
18191;DHT22;47004;51.366;12.348;2023-05-20T07:06:20;14.80;99.90
18191;DHT22;47004;51.366;12.348;2023-05-20T07:08:22;14.90;99.90
18191;DHT22;47004;51.366;12.348;2023-05-20T07:10:24;14.90;99.90
18191;DHT22;47004;51.366;12.348;2023-05-20T07:12:26;14.90;99.90
18191;DHT22;47004;51.366;12.348;2023-05-20T07:14:28;14.90;99.90
18191;DHT22;47004;51.366;12.348;2023-05-20T07:16:29;15.00;99.90
18191;DHT22;47004;51.366;12.348;2023-05-20T07:18:34;15.00;99.90
18191;DHT22;47004;51.366;12.348;2023-05-20T07:20:37;15.00;99.90
18191;DHT22;47004;51.366;12.348;2023-05-20T07:22:40;15.00;99.90
18191;DHT22;47004;51.366;12.348;2023-05-20T07:24:44;15.10;99.90
18191;DHT22;47004;51.366;12.348;2023-05-20T07:26:48;15.10;99.90
18191;DHT22;47004;51.366;12.348;2023-05-20T07:28:50;15.20;99.90
18191;DHT22;47004;51.366;12.348;2023-05-20T07:30:52;15.20;99.90
18191;DHT22;47004;51.366;12.348;2023-05-20T07:32:56;15.30;99.90
18191;DHT22;47004;51.366;12.348;2023-05-20T07:34:57;15.30;99.90
18191;DHT22;47004;51.366;12.348;2023-05-20T07:36:59;15.40;99.90
18191;DHT22;47004;51.366;12.348;2023-05-20T07:39:03;15.40;99.90
18191;DHT22;47004;51.366;12.348;2023-05-20T07:41:05;15.40;99.90
18191;DHT22;47004;51.366;12.348;2023-05-20T07:43:07;15.40;99.90
18191;DHT22;47004;51.366;12.348;2023-05-20T07:45:11;15.50;99.90
18191;DHT22;47004;51.366;12.348;2023-05-20T07:47:13;15.50;99.90
18191;DHT22;47004;51.366;12.348;2023-05-20T07:49:15;15.60;99.90
18191;DHT22;47004;51.366;12.348;2023-05-20T07:51:17;15.70;99.90
18191;DHT22;47004;51.366;12.348;2023-05-20T07:53:19;15.70;99.90
18191;DHT22;47004;51.366;12.348;2023-05-20T07:55:22;15.80;99.90
18191;DHT22;47004;51.366;12.348;2023-05-20T07:57:24;16.00;99.90
18191;DHT22;47004;51.366;12.348;2023-05-20T07:59:26;16.10;99.90
18191;DHT22;47004;51.366;12.348;2023-05-20T08:01:28;16.20;99.90
18191;DHT22;47004;51.366;12.348;2023-05-20T08:03:31;16.30;99.90
18191;DHT22;47004;51.366;12.348;2023-05-20T08:05:35;16.40;99.90
18191;DHT22;47004;51.366;12.348;2023-05-20T08:07:37;16.50;99.90
18191;DHT22;47004;51.366;12.348;2023-05-20T08:09:39;16.60;99.90
18191;DHT22;47004;51.366;12.348;2023-05-20T08:11:43;16.60;99.90
18191;DHT22;47004;51.366;12.348;2023-05-20T08:13:45;16.70;99.90
18191;DHT22;47004;51.366;12.348;2023-05-20T08:15:52;16.70;99.90
18191;DHT22;47004;51.366;12.348;2023-05-20T08:17:54;16.80;99.90
18191;DHT22;47004;51.366;12.348;2023-05-20T08:19:56;16.80;99.90
18191;DHT22;47004;51.366;12.348;2023-05-20T08:21:58;16.80;99.90
18191;DHT22;47004;51.366;12.348;2023-05-20T08:23:59;16.90;99.90
18191;DHT22;47004;51.366;12.348;2023-05-20T08:26:01;16.90;99.90
18191;DHT22;47004;51.366;12.348;2023-05-20T08:28:05;16.90;99.90
18191;DHT22;47004;51.366;12.348;2023-05-20T08:30:08;17.00;99.90
18191;DHT22;47004;51.366;12.348;2023-05-20T08:32:10;17.00;99.90
18191;DHT22;47004;51.366;12.348;2023-05-20T08:34:12;17.10;99.90
18191;DHT22;47004;51.366;12.348;2023-05-20T08:36:14;17.10;99.90
18191;DHT22;47004;51.366;12.348;2023-05-20T08:38:16;17.10;99.90
18191;DHT22;47004;51.366;12.348;2023-05-20T08:40:20;17.10;99.90
18191;DHT22;47004;51.366;12.348;2023-05-20T08:42:25;17.10;99.90
18191;DHT22;47004;51.366;12.348;2023-05-20T08:44:29;17.10;99.90
18191;DHT22;47004;51.366;12.348;2023-05-20T08:46:33;17.10;99.90
18191;DHT22;47004;51.366;12.348;2023-05-20T08:48:36;17.10;99.90
18191;DHT22;47004;51.366;12.348;2023-05-20T08:50:38;17.10;99.90
18191;DHT22;47004;51.366;12.348;2023-05-20T08:52:43;17.20;99.90
18191;DHT22;47004;51.366;12.348;2023-05-20T08:54:47;17.30;99.90
18191;DHT22;47004;51.366;12.348;2023-05-20T08:56:49;17.50;99.90
18191;DHT22;47004;51.366;12.348;2023-05-20T08:58:53;17.60;99.90
18191;DHT22;47004;51.366;12.348;2023-05-20T09:00:57;17.80;99.90
18191;DHT22;47004;51.366;12.348;2023-05-20T09:02:59;17.90;99.90
18191;DHT22;47004;51.366;12.348;2023-05-20T09:05:02;18.10;99.90
18191;DHT22;47004;51.366;12.348;2023-05-20T09:07:04;18.10;99.90
18191;DHT22;47004;51.366;12.348;2023-05-20T09:09:06;18.20;99.90
18191;DHT22;47004;51.366;12.348;2023-05-20T09:11:11;18.30;99.90
18191;DHT22;47004;51.366;12.348;2023-05-20T09:13:13;18.40;99.90
18191;DHT22;47004;51.366;12.348;2023-05-20T09:15:15;18.50;99.90
18191;DHT22;47004;51.366;12.348;2023-05-20T09:17:20;18.50;99.90
18191;DHT22;47004;51.366;12.348;2023-05-20T09:19:23;18.50;99.90
18191;DHT22;47004;51.366;12.348;2023-05-20T09:21:26;18.60;99.90
18191;DHT22;47004;51.366;12.348;2023-05-20T09:23:28;18.60;99.90
18191;DHT22;47004;51.366;12.348;2023-05-20T09:25:30;18.60;99.90
18191;DHT22;47004;51.366;12.348;2023-05-20T09:27:32;18.60;99.90
18191;DHT22;47004;51.366;12.348;2023-05-20T09:29:34;18.70;99.90
18191;DHT22;47004;51.366;12.348;2023-05-20T09:31:36;18.80;99.90
18191;DHT22;47004;51.366;12.348;2023-05-20T09:33:40;18.90;99.90
18191;DHT22;47004;51.366;12.348;2023-05-20T09:35:42;18.90;99.90
18191;DHT22;47004;51.366;12.348;2023-05-20T09:37:45;19.00;99.90
18191;DHT22;47004;51.366;12.348;2023-05-20T09:39:54;19.10;99.90
18191;DHT22;47004;51.366;12.348;2023-05-20T09:42:16;19.20;99.90
18191;DHT22;47004;51.366;12.348;2023-05-20T09:44:20;19.30;99.90
18191;DHT22;47004;51.366;12.348;2023-05-20T09:46:22;19.40;99.90
18191;DHT22;47004;51.366;12.348;2023-05-20T09:48:25;19.50;99.90
18191;DHT22;47004;51.366;12.348;2023-05-20T09:50:29;19.50;99.90
18191;DHT22;47004;51.366;12.348;2023-05-20T09:52:33;19.50;99.90
18191;DHT22;47004;51.366;12.348;2023-05-20T09:54:36;19.50;99.90
18191;DHT22;47004;51.366;12.348;2023-05-20T09:56:40;19.50;99.90
18191;DHT22;47004;51.366;12.348;2023-05-20T09:58:43;19.50;99.90
18191;DHT22;47004;51.366;12.348;2023-05-20T10:00:46;19.60;99.90
18191;DHT22;47004;51.366;12.348;2023-05-20T10:02:49;19.70;99.90
18191;DHT22;47004;51.366;12.348;2023-05-20T10:04:53;19.90;99.90
18191;DHT22;47004;51.366;12.348;2023-05-20T10:09:36;20.20;99.90
18191;DHT22;47004;51.366;12.348;2023-05-20T10:11:47;20.30;99.90
18191;DHT22;47004;51.366;12.348;2023-05-20T10:14:07;20.40;99.90
18191;DHT22;47004;51.366;12.348;2023-05-20T10:16:18;20.50;99.90
18191;DHT22;47004;51.366;12.348;2023-05-20T10:18:31;20.70;99.90
18191;DHT22;47004;51.366;12.348;2023-05-20T10:20:44;20.70;99.90
18191;DHT22;47004;51.366;12.348;2023-05-20T10:22:55;20.90;99.90
18191;DHT22;47004;51.366;12.348;2023-05-20T10:24:58;21.00;99.90
18191;DHT22;47004;51.366;12.348;2023-05-20T10:27:03;21.10;99.90
18191;DHT22;47004;51.366;12.348;2023-05-20T10:29:15;21.10;99.90
18191;DHT22;47004;51.366;12.348;2023-05-20T10:31:20;21.20;99.90
18191;DHT22;47004;51.366;12.348;2023-05-20T10:33:22;21.20;99.90
18191;DHT22;47004;51.366;12.348;2023-05-20T10:35:25;21.30;99.90
18191;DHT22;47004;51.366;12.348;2023-05-20T10:37:39;21.40;99.90
18191;DHT22;47004;51.366;12.348;2023-05-20T10:39:43;21.60;99.90
18191;DHT22;47004;51.366;12.348;2023-05-20T10:41:45;21.60;99.90
18191;DHT22;47004;51.366;12.348;2023-05-20T10:43:58;21.70;99.90
18191;DHT22;47004;51.366;12.348;2023-05-20T10:46:00;21.80;99.90
18191;DHT22;47004;51.366;12.348;2023-05-20T10:48:02;21.80;99.90
18191;DHT22;47004;51.366;12.348;2023-05-20T10:50:06;21.90;99.90
18191;DHT22;47004;51.366;12.348;2023-05-20T10:52:08;22.10;99.90
18191;DHT22;47004;51.366;12.348;2023-05-20T10:54:11;22.30;99.90
18191;DHT22;47004;51.366;12.348;2023-05-20T10:56:17;22.40;99.90
18191;DHT22;47004;51.366;12.348;2023-05-20T10:58:20;22.60;99.90
18191;DHT22;47004;51.366;12.348;2023-05-20T11:00:23;22.90;99.90
18191;DHT22;47004;51.366;12.348;2023-05-20T11:02:26;23.10;99.90
18191;DHT22;47004;51.366;12.348;2023-05-20T11:04:28;23.30;99.90
18191;DHT22;47004;51.366;12.348;2023-05-20T11:06:30;23.50;99.90
18191;DHT22;47004;51.366;12.348;2023-05-20T11:08:35;23.70;99.90
18191;DHT22;47004;51.366;12.348;2023-05-20T11:10:37;23.90;99.90
18191;DHT22;47004;51.366;12.348;2023-05-20T11:12:40;23.90;99.90
18191;DHT22;47004;51.366;12.348;2023-05-20T11:14:42;23.90;99.90
18191;DHT22;47004;51.366;12.348;2023-05-20T11:16:45;24.00;99.90
18191;DHT22;47004;51.366;12.348;2023-05-20T11:18:48;24.00;99.90
18191;DHT22;47004;51.366;12.348;2023-05-20T11:20:50;24.00;99.60
18191;DHT22;47004;51.366;12.348;2023-05-20T11:22:54;24.00;98.20
18191;DHT22;47004;51.366;12.348;2023-05-20T11:24:56;24.00;99.90
18191;DHT22;47004;51.366;12.348;2023-05-20T11:26:59;24.00;99.90
18191;DHT22;47004;51.366;12.348;2023-05-20T11:29:03;24.00;99.90
18191;DHT22;47004;51.366;12.348;2023-05-20T11:31:05;24.10;99.90
18191;DHT22;47004;51.366;12.348;2023-05-20T11:33:11;24.30;99.90
18191;DHT22;47004;51.366;12.348;2023-05-20T11:35:21;24.40;96.40
18191;DHT22;47004;51.366;12.348;2023-05-20T11:37:24;24.60;93.80
18191;DHT22;47004;51.366;12.348;2023-05-20T11:39:28;24.70;91.90
18191;DHT22;47004;51.366;12.348;2023-05-20T11:41:30;24.90;91.10
18191;DHT22;47004;51.366;12.348;2023-05-20T11:43:32;25.00;89.10
18191;DHT22;47004;51.366;12.348;2023-05-20T11:45:40;25.30;85.90
18191;DHT22;47004;51.366;12.348;2023-05-20T11:47:42;25.60;83.50
18191;DHT22;47004;51.366;12.348;2023-05-20T11:49:48;25.90;78.40
18191;DHT22;47004;51.366;12.348;2023-05-20T11:51:49;26.30;71.20
18191;DHT22;47004;51.366;12.348;2023-05-20T11:53:52;26.60;63.80
18191;DHT22;47004;51.366;12.348;2023-05-20T11:55:54;26.90;58.70
18191;DHT22;47004;51.366;12.348;2023-05-20T11:57:57;27.20;56.30
18191;DHT22;47004;51.366;12.348;2023-05-20T11:59:59;27.50;54.60
18191;DHT22;47004;51.366;12.348;2023-05-20T12:02:03;27.70;54.30
18191;DHT22;47004;51.366;12.348;2023-05-20T12:04:04;28.10;51.10
18191;DHT22;47004;51.366;12.348;2023-05-20T12:06:07;28.50;48.70
18191;DHT22;47004;51.366;12.348;2023-05-20T12:08:09;28.80;47.30
18191;DHT22;47004;51.366;12.348;2023-05-20T12:10:11;29.40;45.30
18191;DHT22;47004;51.366;12.348;2023-05-20T12:12:13;30.00;43.70
18191;DHT22;47004;51.366;12.348;2023-05-20T12:14:16;30.40;41.70
18191;DHT22;47004;51.366;12.348;2023-05-20T12:16:17;30.90;40.20
18191;DHT22;47004;51.366;12.348;2023-05-20T12:18:21;31.40;38.90
18191;DHT22;47004;51.366;12.348;2023-05-20T12:20:23;31.40;38.00
18191;DHT22;47004;51.366;12.348;2023-05-20T12:22:26;31.70;37.40
18191;DHT22;47004;51.366;12.348;2023-05-20T12:24:27;32.00;36.50
18191;DHT22;47004;51.366;12.348;2023-05-20T12:26:29;32.20;36.20
18191;DHT22;47004;51.366;12.348;2023-05-20T12:28:31;32.40;35.90
18191;DHT22;47004;51.366;12.348;2023-05-20T12:30:33;32.80;35.10
18191;DHT22;47004;51.366;12.348;2023-05-20T12:32:36;33.20;33.90
18191;DHT22;47004;51.366;12.348;2023-05-20T12:34:39;33.60;33.50
18191;DHT22;47004;51.366;12.348;2023-05-20T12:36:41;33.90;32.70
18191;DHT22;47004;51.366;12.348;2023-05-20T12:38:43;34.20;32.10
18191;DHT22;47004;51.366;12.348;2023-05-20T12:40:45;34.40;31.70
18191;DHT22;47004;51.366;12.348;2023-05-20T12:42:47;34.50;30.90
18191;DHT22;47004;51.366;12.348;2023-05-20T12:44:49;34.80;30.20
18191;DHT22;47004;51.366;12.348;2023-05-20T12:46:51;35.00;30.00